Time;durP1;ratioP1;P1;durP2;ratioP2;P2;SDS_P1;SDS_P2;PMS_P1;PMS_P2;Temp;Humidity;BMP_temperature;BMP_pressure;BME280_temperature;BME280_humidity;BME280_pressure;Samples;Min_cycle;Max_cycle;Signal;HPM_P1;HPM_P2
2021/12/12 00:02:09;;;;;;;6.50;4.90;;;;;;;;;;4950574;28;20236;-76
2021/12/12 00:04:37;;;;;;;7.43;3.73;;;;;;;;;;4950819;28;20188;-76
2021/12/12 00:07:05;;;;;;;5.40;4.40;;;;;;;;;;4956335;28;20177;-75
2021/12/12 00:09:32;;;;;;;7.67;4.67;;;;;;;;;;4958314;28;20197;-75
2021/12/12 00:11:59;;;;;;;6.13;4.27;;;;;;;;;;4952218;28;20206;-76
2021/12/12 00:14:29;;;;;;;5.57;4.93;;;;;;;;;;4951858;28;20188;-76
2021/12/12 00:16:55;;;;;;;6.77;4.73;;;;;;;;;;4949860;28;20253;-76
2021/12/12 00:19:22;;;;;;;6.80;5.17;;;;;;;;;;4956977;28;20276;-76
2021/12/12 00:21:49;;;;;;;6.33;4.50;;;;;;;;;;4951892;28;20201;-75
2021/12/12 00:24:15;;;;;;;6.53;4.27;;;;;;;;;;4952680;28;20188;-76
2021/12/12 00:26:41;;;;;;;9.27;5.07;;;;;;;;;;4951216;28;20186;-76
2021/12/12 00:29:07;;;;;;;5.77;4.83;;;;;;;;;;4954850;28;20448;-76
2021/12/12 00:31:33;;;;;;;6.60;4.40;;;;;;;;;;4954060;28;20280;-76
2021/12/12 00:33:59;;;;;;;5.40;4.30;;;;;;;;;;4953165;28;20260;-75
2021/12/12 00:36:26;;;;;;;6.50;4.60;;;;;;;;;;4954238;28;20184;-76
2021/12/12 00:38:54;;;;;;;7.40;4.73;;;;;;;;;;4953616;28;20216;-76
2021/12/12 00:41:24;;;;;;;8.07;4.43;;;;;;;;;;4954218;28;20197;-76
2021/12/12 00:43:50;;;;;;;5.77;3.77;;;;;;;;;;4954449;28;20181;-76
2021/12/12 00:46:17;;;;;;;4.10;3.70;;;;;;;;;;4957236;28;20177;-76
2021/12/12 00:48:43;;;;;;;4.40;3.50;;;;;;;;;;4954031;28;20285;-76
2021/12/12 00:51:10;;;;;;;7.40;4.10;;;;;;;;;;4951526;28;20188;-76
2021/12/12 00:53:38;;;;;;;10.37;3.87;;;;;;;;;;4950983;28;20176;-76
2021/12/12 00:56:04;;;;;;;6.20;3.97;;;;;;;;;;4951348;28;20192;-76
2021/12/12 00:58:29;;;;;;;7.07;3.63;;;;;;;;;;4947255;28;20182;-76
2021/12/12 01:01:02;;;;;;;7.73;5.60;;;;;;;;;;4950699;28;20185;-76
2021/12/12 01:03:30;;;;;;;7.30;4.20;;;;;;;;;;4948955;28;20217;-76
2021/12/12 01:05:56;;;;;;;7.23;4.60;;;;;;;;;;4957206;28;20184;-76
2021/12/12 01:08:22;;;;;;;6.30;3.73;;;;;;;;;;4956545;28;20189;-76
2021/12/12 01:10:58;;;;;;;7.30;5.07;;;;;;;;;;4953637;28;20627;-76
2021/12/12 01:13:24;;;;;;;6.40;4.13;;;;;;;;;;4952496;28;20212;-76
2021/12/12 01:15:52;;;;;;;5.03;4.33;;;;;;;;;;4953123;28;20204;-76
2021/12/12 01:18:21;;;;;;;6.33;4.00;;;;;;;;;;4968283;28;20176;-76
2021/12/12 01:20:53;;;;;;;8.30;3.60;;;;;;;;;;4955296;28;20185;-76
2021/12/12 01:23:18;;;;;;;5.50;3.00;;;;;;;;;;4955004;28;20199;-76
2021/12/12 01:25:46;;;;;;;4.23;3.77;;;;;;;;;;4950211;28;20177;-76
2021/12/12 01:28:16;;;;;;;6.77;3.77;;;;;;;;;;4953822;28;20185;-76
2021/12/12 01:30:41;;;;;;;7.50;4.87;;;;;;;;;;4957233;28;20215;-76
2021/12/12 01:33:09;;;;;;;5.53;4.33;;;;;;;;;;4959959;28;20212;-76
2021/12/12 01:35:34;;;;;;;6.53;4.23;;;;;;;;;;4969776;28;20184;-76
2021/12/12 01:40:49;;;;;;;7.33;4.10;;;;;;;;;;4980393;28;20292;-77
2021/12/12 01:43:21;;;;;;;7.77;3.93;;;;;;;;;;4950302;28;20235;-76
2021/12/12 01:45:50;;;;;;;4.30;3.37;;;;;;;;;;4961927;28;20187;-76
2021/12/12 01:48:24;;;;;;;4.70;3.70;;;;;;;;;;4975757;28;20188;-76
2021/12/12 01:50:51;;;;;;;7.23;4.23;;;;;;;;;;4972124;28;20181;-76
2021/12/12 01:53:19;;;;;;;5.40;3.50;;;;;;;;;;4962399;28;20222;-76
2021/12/12 01:55:49;;;;;;;5.77;3.00;;;;;;;;;;4961175;28;20191;-76
2021/12/12 01:58:16;;;;;;;6.20;3.23;;;;;;;;;;4958253;28;20244;-76
2021/12/12 02:00:51;;;;;;;8.47;3.63;;;;;;;;;;4974031;28;20219;-76
2021/12/12 02:03:17;;;;;;;7.17;3.57;;;;;;;;;;4978692;28;20191;-76
2021/12/12 02:05:42;;;;;;;4.57;3.00;;;;;;;;;;4957214;28;20192;-76
2021/12/12 02:08:13;;;;;;;7.13;3.63;;;;;;;;;;4956944;28;20300;-76
2021/12/12 02:10:52;;;;;;;5.37;3.60;;;;;;;;;;4970979;28;20294;-76
2021/12/12 02:13:18;;;;;;;4.63;3.47;;;;;;;;;;4953360;28;20520;-76
2021/12/12 02:15:46;;;;;;;4.53;3.03;;;;;;;;;;4946597;28;20235;-76
2021/12/12 02:18:14;;;;;;;3.93;3.30;;;;;;;;;;4959555;28;20223;-76
2021/12/12 02:20:47;;;;;;;6.37;3.40;;;;;;;;;;4953148;28;20180;-76
2021/12/12 02:23:32;;;;;;;4.27;3.10;;;;;;;;;;4956509;28;20195;-76
2021/12/12 02:36:56;;;;;;;4.23;3.37;;;;;;;;;;4975584;28;20184;-76
2021/12/12 02:39:22;;;;;;;5.53;3.50;;;;;;;;;;4952338;28;20180;-76
2021/12/12 02:41:52;;;;;;;6.60;3.53;;;;;;;;;;4959282;28;20211;-76
2021/12/12 02:44:21;;;;;;;5.60;3.30;;;;;;;;;;4957229;28;20191;-76
2021/12/12 02:46:48;;;;;;;5.77;3.70;;;;;;;;;;4955342;28;20220;-76
2021/12/12 02:49:36;;;;;;;5.97;3.93;;;;;;;;;;4954546;28;20180;-76
2021/12/12 02:52:02;;;;;;;6.17;4.40;;;;;;;;;;4961828;28;20211;-76
2021/12/12 02:54:27;;;;;;;5.80;4.30;;;;;;;;;;4955530;28;20181;-76
2021/12/12 02:56:52;;;;;;;7.77;3.93;;;;;;;;;;4977559;28;20235;-76
2021/12/12 02:59:19;;;;;;;4.97;3.73;;;;;;;;;;4960755;28;20270;-76
2021/12/12 03:01:48;;;;;;;5.03;3.73;;;;;;;;;;4954452;28;20280;-76
2021/12/12 03:04:13;;;;;;;6.43;3.50;;;;;;;;;;4959307;28;20180;-76
2021/12/12 03:06:40;;;;;;;5.87;3.93;;;;;;;;;;4958695;28;20189;-76
2021/12/12 03:09:08;;;;;;;7.63;3.60;;;;;;;;;;4971861;28;20184;-76
2021/12/12 03:11:33;;;;;;;4.63;3.97;;;;;;;;;;4970583;28;20205;-76
2021/12/12 03:13:58;;;;;;;5.00;4.30;;;;;;;;;;4946672;28;20180;-76
2021/12/12 03:16:24;;;;;;;6.30;3.90;;;;;;;;;;4957296;28;20193;-76
2021/12/12 03:18:49;;;;;;;9.57;4.27;;;;;;;;;;4980083;28;20208;-76
2021/12/12 03:21:17;;;;;;;5.33;3.67;;;;;;;;;;4953359;28;20191;-76
2021/12/12 03:23:45;;;;;;;6.20;3.73;;;;;;;;;;4953451;28;20205;-76
2021/12/12 03:26:11;;;;;;;7.37;3.83;;;;;;;;;;4963505;28;20169;-76
2021/12/12 03:28:37;;;;;;;6.07;4.20;;;;;;;;;;4955329;28;20256;-76
2021/12/12 03:31:04;;;;;;;6.33;3.67;;;;;;;;;;4971180;28;20255;-76
2021/12/12 03:33:31;;;;;;;4.73;3.63;;;;;;;;;;4953311;28;20290;-76
2021/12/12 03:35:57;;;;;;;4.30;2.90;;;;;;;;;;4951162;28;20177;-76
2021/12/12 03:38:27;;;;;;;7.53;3.60;;;;;;;;;;4954637;28;20206;-76
2021/12/12 03:40:53;;;;;;;4.33;3.70;;;;;;;;;;4971791;28;20246;-77
2021/12/12 03:43:18;;;;;;;3.57;3.23;;;;;;;;;;4954953;28;20192;-77
2021/12/12 03:45:44;;;;;;;4.67;3.43;;;;;;;;;;4954315;28;20184;-77
2021/12/12 03:48:22;;;;;;;3.47;3.10;;;;;;;;;;4967230;28;20184;-77
2021/12/12 03:50:50;;;;;;;6.77;3.50;;;;;;;;;;4958084;28;20191;-77
2021/12/12 03:53:16;;;;;;;6.93;3.73;;;;;;;;;;4966163;28;20228;-77
2021/12/12 03:55:42;;;;;;;3.80;3.33;;;;;;;;;;4959211;28;20214;-77
2021/12/12 03:58:07;;;;;;;3.30;2.90;;;;;;;;;;4961050;28;20181;-77
2021/12/12 04:00:38;;;;;;;4.93;3.10;;;;;;;;;;4953935;28;20227;-77
2021/12/12 04:03:04;;;;;;;4.93;3.07;;;;;;;;;;4965035;28;20180;-77
2021/12/12 04:05:29;;;;;;;6.67;3.47;;;;;;;;;;4957830;28;20193;-77
2021/12/12 04:07:54;;;;;;;5.10;2.80;;;;;;;;;;4963847;28;20216;-77
2021/12/12 04:10:20;;;;;;;4.63;3.20;;;;;;;;;;4959121;28;20185;-77
2021/12/12 04:12:47;;;;;;;5.70;3.10;;;;;;;;;;4963386;28;20200;-77
2021/12/12 04:15:12;;;;;;;5.57;3.40;;;;;;;;;;4958491;28;20200;-77
2021/12/12 04:17:38;;;;;;;7.40;3.33;;;;;;;;;;4958348;28;20198;-77
2021/12/12 04:20:10;;;;;;;7.90;3.60;;;;;;;;;;4962369;28;20260;-77
2021/12/12 04:22:35;;;;;;;4.23;3.13;;;;;;;;;;4958035;28;20268;-77
2021/12/12 04:25:01;;;;;;;6.23;4.13;;;;;;;;;;4957983;28;20248;-77
2021/12/12 04:27:26;;;;;;;4.43;3.93;;;;;;;;;;4959355;28;20260;-77
2021/12/12 04:29:53;;;;;;;4.20;3.37;;;;;;;;;;4954356;28;20292;-77
2021/12/12 04:32:24;;;;;;;4.37;2.77;;;;;;;;;;4953453;28;20209;-77
2021/12/12 04:34:52;;;;;;;7.43;4.47;;;;;;;;;;4951742;28;20179;-77
2021/12/12 04:37:18;;;;;;;17.20;11.73;;;;;;;;;;4955958;28;20190;-77
2021/12/12 04:39:47;;;;;;;7.13;5.10;;;;;;;;;;4952432;28;20178;-77
2021/12/12 04:42:15;;;;;;;6.40;5.40;;;;;;;;;;4953267;28;20217;-77
2021/12/12 04:44:41;;;;;;;7.87;4.30;;;;;;;;;;4951948;28;20264;-77
2021/12/12 04:50:06;;;;;;;5.93;3.83;;;;;;;;;;4957346;28;20193;-77
2021/12/12 04:52:45;;;;;;;4.53;4.13;;;;;;;;;;4953407;29;20340;-77
2021/12/12 04:55:30;;;;;;;4.47;3.13;;;;;;;;;;4948483;28;20177;-77
2021/12/12 04:57:58;;;;;;;3.97;3.57;;;;;;;;;;4958349;28;20196;-77
2021/12/12 05:00:27;;;;;;;5.40;2.80;;;;;;;;;;4955179;28;20185;-77
2021/12/12 05:03:08;;;;;;;5.10;3.07;;;;;;;;;;4954059;29;20189;-77
2021/12/12 05:05:38;;;;;;;5.37;2.90;;;;;;;;;;4953210;28;20191;-77
2021/12/12 05:08:06;;;;;;;4.33;2.73;;;;;;;;;;4954032;28;20177;-77
2021/12/12 05:10:34;;;;;;;3.90;3.00;;;;;;;;;;4958897;28;20586;-77
2021/12/12 05:13:14;;;;;;;5.73;3.37;;;;;;;;;;4950216;28;20205;-77
2021/12/12 05:15:41;;;;;;;9.57;5.00;;;;;;;;;;4952584;28;20295;-77
2021/12/12 05:18:06;;;;;;;19.43;10.50;;;;;;;;;;4966253;28;20258;-77
2021/12/12 05:20:38;;;;;;;11.47;7.80;;;;;;;;;;4957982;28;20272;-77
2021/12/12 05:23:05;;;;;;;9.73;4.80;;;;;;;;;;4955834;28;20180;-77
2021/12/12 05:25:42;;;;;;;6.10;5.03;;;;;;;;;;4960292;28;20178;-77
2021/12/12 05:28:08;;;;;;;5.80;3.70;;;;;;;;;;4953586;28;20178;-77
2021/12/12 05:30:34;;;;;;;3.87;3.13;;;;;;;;;;4951976;28;20246;-77
2021/12/12 05:33:00;;;;;;;5.37;3.93;;;;;;;;;;4952572;28;20205;-76
2021/12/12 05:35:30;;;;;;;3.43;2.97;;;;;;;;;;4957008;28;20273;-76
2021/12/12 05:37:55;;;;;;;5.53;3.30;;;;;;;;;;4956131;28;20249;-77
2021/12/12 05:40:23;;;;;;;4.90;2.93;;;;;;;;;;4956923;28;20268;-77
2021/12/12 05:42:52;;;;;;;6.87;3.50;;;;;;;;;;4952965;28;20212;-76
2021/12/12 05:45:17;;;;;;;5.83;3.93;;;;;;;;;;4954248;28;20194;-76
2021/12/12 05:47:43;;;;;;;4.63;3.20;;;;;;;;;;4953650;28;20182;-76
2021/12/12 05:50:09;;;;;;;4.50;3.30;;;;;;;;;;4955714;28;20189;-76
2021/12/12 05:52:34;;;;;;;6.73;3.50;;;;;;;;;;4951423;28;20216;-76
2021/12/12 05:55:00;;;;;;;5.83;3.77;;;;;;;;;;4950871;28;20181;-76
2021/12/12 05:57:27;;;;;;;4.33;3.37;;;;;;;;;;4954344;28;20193;-76
2021/12/12 05:59:54;;;;;;;6.53;3.87;;;;;;;;;;4953196;28;20184;-76
2021/12/12 06:02:19;;;;;;;5.63;3.63;;;;;;;;;;4957436;28;20211;-76
2021/12/12 06:04:45;;;;;;;3.40;2.90;;;;;;;;;;4953164;28;20189;-76
2021/12/12 06:07:13;;;;;;;6.57;3.67;;;;;;;;;;4954682;28;20217;-76
2021/12/12 06:09:38;;;;;;;4.30;3.50;;;;;;;;;;4952779;28;20181;-76
2021/12/12 06:12:05;;;;;;;4.70;3.17;;;;;;;;;;4952373;28;20201;-76
2021/12/12 06:14:30;;;;;;;5.10;2.77;;;;;;;;;;4953928;28;20358;-76
2021/12/12 06:16:56;;;;;;;3.73;3.27;;;;;;;;;;4949778;28;20386;-76
2021/12/12 06:19:23;;;;;;;6.40;3.10;;;;;;;;;;4957317;28;20181;-76
2021/12/12 06:21:53;;;;;;;3.87;3.43;;;;;;;;;;4953264;28;20229;-76
2021/12/12 06:24:20;;;;;;;4.07;3.33;;;;;;;;;;4951914;28;20178;-76
2021/12/12 06:26:46;;;;;;;2.63;2.33;;;;;;;;;;4950438;28;20181;-76
2021/12/12 06:29:11;;;;;;;3.97;3.13;;;;;;;;;;4951434;29;20326;-76
2021/12/12 06:31:38;;;;;;;4.87;2.70;;;;;;;;;;4941307;28;20375;-76
2021/12/12 06:34:04;;;;;;;3.20;2.90;;;;;;;;;;4950663;28;20223;-76
2021/12/12 06:36:29;;;;;;;6.07;3.67;;;;;;;;;;4957676;28;20188;-76
2021/12/12 06:38:55;;;;;;;3.17;2.80;;;;;;;;;;4950368;28;20264;-76
2021/12/12 06:41:21;;;;;;;3.93;2.93;;;;;;;;;;4954023;28;20208;-76
2021/12/12 06:43:48;;;;;;;3.87;3.13;;;;;;;;;;4951253;28;20193;-76
2021/12/12 06:46:13;;;;;;;4.57;2.87;;;;;;;;;;4950306;28;20216;-76
2021/12/12 06:48:39;;;;;;;4.20;3.03;;;;;;;;;;4949313;28;20278;-76
2021/12/12 06:51:05;;;;;;;5.77;3.10;;;;;;;;;;4958314;28;20229;-76
2021/12/12 06:53:32;;;;;;;4.30;3.20;;;;;;;;;;4955623;28;20244;-76
2021/12/12 06:55:57;;;;;;;3.87;3.33;;;;;;;;;;4954242;28;20189;-76
2021/12/12 06:58:24;;;;;;;3.83;2.90;;;;;;;;;;4953773;28;20177;-76
2021/12/12 07:00:51;;;;;;;3.10;2.60;;;;;;;;;;4951555;28;20185;-76
2021/12/12 07:03:17;;;;;;;4.33;3.47;;;;;;;;;;4947371;28;20313;-76
2021/12/12 07:05:43;;;;;;;2.77;2.57;;;;;;;;;;4949052;28;20272;-76
2021/12/12 07:08:08;;;;;;;3.50;2.93;;;;;;;;;;4957187;28;20298;-76
2021/12/12 07:10:33;;;;;;;5.00;3.10;;;;;;;;;;4952622;28;20184;-76
2021/12/12 07:12:59;;;;;;;3.17;2.60;;;;;;;;;;4953057;28;20232;-76
2021/12/12 07:15:26;;;;;;;3.57;3.17;;;;;;;;;;4952643;28;20182;-76
2021/12/12 07:17:53;;;;;;;4.83;3.37;;;;;;;;;;4951299;28;20257;-76
2021/12/12 07:20:19;;;;;;;3.83;3.20;;;;;;;;;;4963664;28;20180;-76
2021/12/12 07:22:44;;;;;;;6.90;3.43;;;;;;;;;;4950052;28;20179;-76
2021/12/12 07:25:09;;;;;;;4.30;3.23;;;;;;;;;;4952372;28;20193;-76
2021/12/12 07:27:35;;;;;;;4.47;2.70;;;;;;;;;;4950333;28;20185;-76
2021/12/12 07:30:01;;;;;;;3.90;3.30;;;;;;;;;;4950472;28;20227;-76
2021/12/12 07:32:27;;;;;;;3.87;2.50;;;;;;;;;;4951287;28;20200;-76
2021/12/12 07:34:53;;;;;;;4.80;2.53;;;;;;;;;;4947551;28;20181;-76
2021/12/12 07:37:18;;;;;;;4.80;2.97;;;;;;;;;;4952546;28;20278;-76
2021/12/12 07:39:44;;;;;;;3.70;3.27;;;;;;;;;;4950738;28;20175;-76
2021/12/12 07:42:10;;;;;;;3.37;2.97;;;;;;;;;;4949149;28;20211;-76
2021/12/12 07:44:37;;;;;;;4.63;3.00;;;;;;;;;;4950823;28;20217;-76
2021/12/12 07:47:03;;;;;;;3.23;2.93;;;;;;;;;;4954366;28;20276;-76
2021/12/12 07:49:32;;;;;;;2.60;2.33;;;;;;;;;;4944139;28;20216;-76
2021/12/12 07:51:57;;;;;;;5.53;2.37;;;;;;;;;;4948258;28;20204;-76
2021/12/12 07:54:22;;;;;;;2.90;2.33;;;;;;;;;;4951204;28;20185;-76
2021/12/12 07:56:48;;;;;;;3.60;2.50;;;;;;;;;;4942129;29;20265;-76
2021/12/12 07:59:15;;;;;;;4.73;2.93;;;;;;;;;;4947929;29;20181;-78
2021/12/12 08:01:43;;;;;;;3.57;3.20;;;;;;;;;;4948636;28;20182;-76
2021/12/12 08:04:09;;;;;;;5.03;3.17;;;;;;;;;;4950927;28;20227;-76
2021/12/12 08:06:34;;;;;;;3.17;2.23;;;;;;;;;;4953156;28;20212;-76
2021/12/12 08:09:00;;;;;;;3.40;3.00;;;;;;;;;;4955539;28;20622;-76
2021/12/12 08:11:28;;;;;;;3.70;3.30;;;;;;;;;;4952268;28;20495;-76
2021/12/12 08:13:54;;;;;;;4.07;2.83;;;;;;;;;;4954900;28;20177;-76
2021/12/12 08:16:20;;;;;;;3.70;3.23;;;;;;;;;;4950736;28;20177;-78
2021/12/12 08:18:45;;;;;;;2.53;2.30;;;;;;;;;;4951196;28;20178;-78
2021/12/12 08:21:11;;;;;;;4.30;3.97;;;;;;;;;;4951680;28;20180;-78
2021/12/12 08:23:37;;;;;;;3.77;2.60;;;;;;;;;;4947600;28;20194;-78
2021/12/12 08:26:05;;;;;;;2.87;2.27;;;;;;;;;;4950403;28;20184;-76
2021/12/12 08:28:31;;;;;;;4.37;2.30;;;;;;;;;;4951919;28;20200;-76
2021/12/12 08:30:56;;;;;;;3.77;2.80;;;;;;;;;;4962923;28;20181;-76
2021/12/12 08:33:22;;;;;;;5.07;4.60;;;;;;;;;;4952077;28;20209;-76
2021/12/12 08:35:47;;;;;;;12.37;7.33;;;;;;;;;;4960848;28;20177;-76
2021/12/12 08:38:13;;;;;;;7.00;5.80;;;;;;;;;;4955703;28;20275;-76
2021/12/12 08:40:43;;;;;;;8.90;6.00;;;;;;;;;;4951176;28;20177;-76
2021/12/12 08:43:12;;;;;;;5.57;3.60;;;;;;;;;;4953790;28;20181;-76
2021/12/12 08:45:40;;;;;;;2.03;1.83;;;;;;;;;;4950887;28;20200;-76
2021/12/12 08:48:05;;;;;;;3.33;1.50;;;;;;;;;;4955624;28;20185;-76
2021/12/12 08:50:32;;;;;;;4.27;3.00;;;;;;;;;;4958061;28;20181;-76
2021/12/12 08:52:58;;;;;;;7.47;3.60;;;;;;;;;;4969456;28;20208;-76
2021/12/12 08:55:30;;;;;;;4.73;2.77;;;;;;;;;;4967963;28;20185;-76
2021/12/12 08:58:04;;;;;;;6.90;3.03;;;;;;;;;;4959090;28;20196;-76
2021/12/12 09:00:35;;;;;;;9.10;7.80;;;;;;;;;;4948728;28;20181;-76
2021/12/12 09:03:01;;;;;;;5.83;3.80;;;;;;;;;;4948760;28;20184;-76
2021/12/12 09:05:37;;;;;;;2.13;1.93;;;;;;;;;;4957500;28;20308;-76
2021/12/12 09:08:08;;;;;;;2.73;1.50;;;;;;;;;;4966160;28;20188;-76
2021/12/12 09:10:52;;;;;;;1.70;1.10;;;;;;;;;;4953037;28;20216;-76
2021/12/12 09:13:21;;;;;;;2.43;1.30;;;;;;;;;;4956518;28;20208;-76
2021/12/12 09:15:49;;;;;;;2.47;1.40;;;;;;;;;;4972457;28;20177;-76
2021/12/12 09:18:20;;;;;;;1.80;1.70;;;;;;;;;;4965742;28;20196;-76
2021/12/12 09:20:53;;;;;;;3.60;2.03;;;;;;;;;;4955080;28;20189;-76
2021/12/12 09:23:21;;;;;;;5.93;3.73;;;;;;;;;;4952949;28;20192;-76
2021/12/12 09:25:56;;;;;;;7.67;4.20;;;;;;;;;;4958279;28;20195;-76
2021/12/12 09:28:32;;;;;;;10.03;6.10;;;;;;;;;;4969834;28;20226;-76
2021/12/12 09:31:00;;;;;;;13.97;9.23;;;;;;;;;;4958918;28;20272;-76
2021/12/12 09:33:29;;;;;;;7.80;5.40;;;;;;;;;;4959660;28;20328;-76
2021/12/12 09:36:13;;;;;;;4.43;2.93;;;;;;;;;;4971731;28;20221;-76
2021/12/12 09:38:47;;;;;;;4.40;2.80;;;;;;;;;;4956514;28;20176;-76
2021/12/12 09:41:12;;;;;;;1.53;1.43;;;;;;;;;;4952981;28;20198;-77
2021/12/12 09:43:52;;;;;;;1.50;1.40;;;;;;;;;;4957873;28;20275;-76
2021/12/12 09:46:28;;;;;;;1.87;1.40;;;;;;;;;;4952425;28;20184;-76
2021/12/12 09:51:59;;;;;;;1.83;1.70;;;;;;;;;;4969970;28;20234;-76
2021/12/12 09:54:27;;;;;;;2.43;2.17;;;;;;;;;;4955329;28;20249;-76
2021/12/12 09:57:11;;;;;;;2.23;1.90;;;;;;;;;;4956270;28;20248;-76
2021/12/12 09:59:58;;;;;;;2.23;1.83;;;;;;;;;;4955098;28;20181;-76
2021/12/12 10:02:23;;;;;;;2.93;2.13;;;;;;;;;;4959371;28;20181;-77
2021/12/12 10:04:54;;;;;;;7.80;4.37;;;;;;;;;;4979023;28;20326;-77
2021/12/12 10:07:25;;;;;;;3.23;2.47;;;;;;;;;;4961706;28;20222;-76
2021/12/12 10:09:55;;;;;;;8.07;5.43;;;;;;;;;;4953098;28;20188;-77
2021/12/12 10:12:23;;;;;;;5.00;4.37;;;;;;;;;;4954969;28;20216;-76
2021/12/12 10:14:50;;;;;;;3.10;2.77;;;;;;;;;;4958067;28;20177;-77
2021/12/12 10:17:26;;;;;;;2.00;1.77;;;;;;;;;;4972940;28;20181;-77
2021/12/12 10:20:00;;;;;;;3.27;2.30;;;;;;;;;;4952397;28;20204;-77
2021/12/12 10:22:44;;;;;;;4.20;2.23;;;;;;;;;;4949772;28;20191;-76
2021/12/12 10:25:11;;;;;;;3.00;2.27;;;;;;;;;;4959442;28;20272;-77
2021/12/12 10:27:51;;;;;;;2.17;1.97;;;;;;;;;;4959083;28;20188;-77
2021/12/12 10:30:25;;;;;;;2.63;1.63;;;;;;;;;;4950526;28;20256;-77
2021/12/12 10:33:04;;;;;;;3.97;2.73;;;;;;;;;;4960261;28;20209;-77
2021/12/12 10:35:36;;;;;;;5.60;2.57;;;;;;;;;;4950390;29;20231;-76
2021/12/12 10:38:07;;;;;;;4.87;3.13;;;;;;;;;;4949495;28;20189;-76
2021/12/12 10:40:35;;;;;;;5.33;3.20;;;;;;;;;;4946101;28;20177;-77
2021/12/12 10:43:04;;;;;;;3.73;2.90;;;;;;;;;;4954533;28;20185;-77
2021/12/12 10:45:32;;;;;;;5.57;3.00;;;;;;;;;;4951190;28;20189;-77
2021/12/12 10:47:57;;;;;;;5.30;2.30;;;;;;;;;;4951688;28;20189;-77
2021/12/12 10:50:25;;;;;;;4.87;3.40;;;;;;;;;;4963404;28;20184;-77
2021/12/12 10:52:50;;;;;;;5.50;4.20;;;;;;;;;;4945133;29;20213;-77
2021/12/12 10:55:19;;;;;;;6.03;4.10;;;;;;;;;;4955052;28;20190;-77
2021/12/12 10:57:48;;;;;;;4.07;3.63;;;;;;;;;;4965596;28;20182;-77
2021/12/12 11:00:27;;;;;;;7.73;3.40;;;;;;;;;;4950090;28;20184;-77
2021/12/12 11:03:07;;;;;;;4.50;3.03;;;;;;;;;;4950013;28;20300;-77
2021/12/12 11:05:41;;;;;;;6.37;3.27;;;;;;;;;;4947532;29;20185;-77
2021/12/12 11:08:14;;;;;;;5.60;5.07;;;;;;;;;;4948009;28;20189;-77
2021/12/12 11:10:40;;;;;;;5.40;4.37;;;;;;;;;;4949336;28;20212;-77
2021/12/12 11:13:11;;;;;;;5.83;2.90;;;;;;;;;;4949950;29;20212;-77
2021/12/12 11:15:40;;;;;;;4.30;2.97;;;;;;;;;;4946576;28;21083;-77
2021/12/12 11:18:08;;;;;;;7.30;4.27;;;;;;;;;;4953182;28;20173;-77
2021/12/12 11:20:54;;;;;;;5.50;4.40;;;;;;;;;;4942948;29;20217;-77
2021/12/12 11:23:19;;;;;;;9.20;6.83;;;;;;;;;;4943851;28;20185;-77
2021/12/12 11:25:51;;;;;;;8.00;5.53;;;;;;;;;;4957308;28;20197;-77
2021/12/12 11:28:25;;;;;;;7.80;5.63;;;;;;;;;;4942012;28;20192;-77
2021/12/12 11:30:52;;;;;;;8.83;6.43;;;;;;;;;;4948153;28;20199;-77
2021/12/12 11:33:18;;;;;;;10.93;6.70;;;;;;;;;;4948072;28;20212;-77
2021/12/12 11:35:46;;;;;;;10.53;7.63;;;;;;;;;;4951264;28;20176;-77
2021/12/12 11:38:14;;;;;;;11.60;8.33;;;;;;;;;;4959905;28;20199;-76
2021/12/12 11:41:05;;;;;;;13.93;9.23;;;;;;;;;;4953026;28;20188;-76
2021/12/12 11:43:49;;;;;;;10.97;7.97;;;;;;;;;;4959809;28;20319;-76
2021/12/12 11:46:17;;;;;;;17.93;12.03;;;;;;;;;;4967566;28;20178;-77
2021/12/12 11:48:42;;;;;;;11.17;7.33;;;;;;;;;;4963767;28;20181;-76
2021/12/12 11:51:31;;;;;;;32.50;22.05;;;;;;;;;;4959001;28;20199;-76
2021/12/12 11:54:02;;;;;;;20.90;13.70;;;;;;;;;;4942847;28;20261;-77
2021/12/12 11:56:47;;;;;;;12.50;8.43;;;;;;;;;;4947359;28;20193;-76
2021/12/12 11:59:22;;;;;;;9.00;6.53;;;;;;;;;;4947489;28;20198;-77
2021/12/12 12:01:48;;;;;;;7.60;4.67;;;;;;;;;;4950217;28;20179;-77
2021/12/12 12:04:17;;;;;;;8.50;4.83;;;;;;;;;;4948781;28;20181;-76
2021/12/12 12:07:01;;;;;;;7.13;4.40;;;;;;;;;;4945420;28;20196;-76
2021/12/12 12:09:27;;;;;;;8.70;4.80;;;;;;;;;;4958183;28;20196;-76
2021/12/12 12:12:04;;;;;;;9.00;4.03;;;;;;;;;;4958369;28;20243;-77
2021/12/12 12:14:34;;;;;;;9.93;5.10;;;;;;;;;;4955722;28;20232;-76
2021/12/12 12:17:08;;;;;;;9.37;4.33;;;;;;;;;;4949093;28;20231;-77
2021/12/12 12:19:55;;;;;;;8.03;4.33;;;;;;;;;;4953162;28;20288;-76
2021/12/12 12:22:40;;;;;;;10.40;6.77;;;;;;;;;;4946741;28;20196;-76
2021/12/12 12:25:21;;;;;;;7.07;5.80;;;;;;;;;;4968734;28;20253;-76
2021/12/12 12:28:03;;;;;;;10.97;4.67;;;;;;;;;;4962474;28;20222;-76
2021/12/12 12:30:31;;;;;;;8.03;4.73;;;;;;;;;;4959771;28;20260;-76
2021/12/12 12:33:15;;;;;;;8.47;5.70;;;;;;;;;;4951896;29;20199;-77
2021/12/12 12:36:00;;;;;;;12.57;5.57;;;;;;;;;;4949600;28;20328;-76
2021/12/12 12:38:25;;;;;;;8.50;6.20;;;;;;;;;;4949145;28;20181;-76
2021/12/12 12:41:09;;;;;;;8.23;6.35;;;;;;;;;;4951702;28;20269;-76
2021/12/12 12:43:40;;;;;;;8.20;6.97;;;;;;;;;;4954882;28;20200;-76
2021/12/12 12:46:08;;;;;;;9.47;7.33;;;;;;;;;;4949836;28;20177;-76
2021/12/12 12:48:33;;;;;;;12.43;9.40;;;;;;;;;;4960094;28;20176;-76
2021/12/12 12:51:02;;;;;;;12.63;9.13;;;;;;;;;;4955254;28;20186;-76
2021/12/12 12:53:28;;;;;;;7.87;4.93;;;;;;;;;;4953008;29;20205;-76
2021/12/12 12:56:02;;;;;;;7.87;6.13;;;;;;;;;;4948690;29;20181;-76
2021/12/12 12:58:27;;;;;;;6.33;4.87;;;;;;;;;;4964304;28;20196;-76
2021/12/12 13:01:08;;;;;;;10.33;7.10;;;;;;;;;;4954036;28;20230;-76
2021/12/12 13:03:33;;;;;;;7.03;6.00;;;;;;;;;;4956472;28;20226;-76
2021/12/12 13:05:58;;;;;;;7.73;5.53;;;;;;;;;;4955556;28;20212;-76
2021/12/12 13:08:42;;;;;;;10.90;6.70;;;;;;;;;;4948044;28;20190;-76
2021/12/12 13:11:08;;;;;;;8.17;6.87;;;;;;;;;;4954738;28;20269;-76
2021/12/12 13:13:39;;;;;;;6.87;5.57;;;;;;;;;;4954899;28;20277;-76
2021/12/12 13:16:07;;;;;;;9.37;7.47;;;;;;;;;;4950117;28;20177;-76
2021/12/12 13:18:42;;;;;;;8.03;6.13;;;;;;;;;;4950309;29;20189;-76
2021/12/12 13:21:25;;;;;;;6.80;4.90;;;;;;;;;;4952264;28;20183;-76
2021/12/12 13:23:52;;;;;;;6.10;4.67;;;;;;;;;;4950568;28;20181;-76
2021/12/12 13:26:23;;;;;;;5.97;3.70;;;;;;;;;;4950958;28;20189;-76
2021/12/12 13:29:07;;;;;;;4.60;3.30;;;;;;;;;;4957529;28;20228;-76
2021/12/12 13:31:39;;;;;;;9.20;6.50;;;;;;;;;;4953173;28;20200;-76
2021/12/12 13:34:23;;;;;;;9.67;5.70;;;;;;;;;;4964504;28;20243;-76
2021/12/12 13:36:55;;;;;;;7.30;4.97;;;;;;;;;;4971666;28;20271;-76
2021/12/12 13:39:39;;;;;;;7.47;5.30;;;;;;;;;;4951439;28;20689;-76
2021/12/12 13:42:21;;;;;;;7.63;5.40;;;;;;;;;;4954114;28;20223;-76
2021/12/12 13:45:10;;;;;;;7.20;5.00;;;;;;;;;;4952863;28;20200;-76
2021/12/12 13:47:59;;;;;;;5.97;3.37;;;;;;;;;;4956266;28;20200;-76
2021/12/12 13:50:46;;;;;;;6.80;3.30;;;;;;;;;;4956503;28;20192;-76
2021/12/12 13:53:16;;;;;;;4.03;3.17;;;;;;;;;;4948331;28;20232;-76
2021/12/12 13:55:50;;;;;;;4.27;3.40;;;;;;;;;;4946655;28;20286;-76
2021/12/12 13:58:30;;;;;;;6.50;3.00;;;;;;;;;;4947754;28;20270;-76
2021/12/12 14:01:06;;;;;;;6.20;3.20;;;;;;;;;;4950281;28;20196;-76
2021/12/12 14:03:33;;;;;;;4.40;3.60;;;;;;;;;;4963700;28;20191;-76
2021/12/12 14:06:01;;;;;;;6.53;3.47;;;;;;;;;;4957404;28;20280;-76
2021/12/12 14:08:28;;;;;;;5.80;4.20;;;;;;;;;;4969741;28;20199;-76
2021/12/12 14:10:58;;;;;;;5.03;4.20;;;;;;;;;;4966130;28;20196;-76
2021/12/12 14:13:48;;;;;;;4.70;4.20;;;;;;;;;;4951654;28;20208;-76
2021/12/12 14:16:16;;;;;;;3.83;3.43;;;;;;;;;;4947636;28;20177;-76
2021/12/12 14:18:43;;;;;;;5.57;4.43;;;;;;;;;;4950816;28;20242;-76
2021/12/12 14:21:10;;;;;;;6.30;3.93;;;;;;;;;;4969165;28;20173;-76
2021/12/12 14:23:36;;;;;;;5.40;4.10;;;;;;;;;;4955454;28;20192;-76
2021/12/12 14:26:14;;;;;;;9.00;4.93;;;;;;;;;;4955707;28;20191;-76
2021/12/12 14:28:41;;;;;;;6.80;4.33;;;;;;;;;;4950140;28;20288;-76
2021/12/12 14:31:09;;;;;;;8.80;4.80;;;;;;;;;;4952699;28;20191;-76
2021/12/12 14:33:39;;;;;;;8.03;4.90;;;;;;;;;;4951769;28;20224;-76
2021/12/12 14:36:07;;;;;;;5.07;3.80;;;;;;;;;;4950266;28;20185;-76
2021/12/12 14:38:33;;;;;;;5.03;4.00;;;;;;;;;;4948582;28;20240;-76
2021/12/12 14:41:00;;;;;;;6.10;4.37;;;;;;;;;;4969012;28;20208;-75
2021/12/12 14:43:31;;;;;;;6.43;4.20;;;;;;;;;;4953656;28;20185;-76
2021/12/12 14:46:19;;;;;;;10.27;5.47;;;;;;;;;;4954802;28;20184;-76
2021/12/12 14:48:49;;;;;;;6.43;5.00;;;;;;;;;;4944350;28;20213;-76
2021/12/12 14:51:20;;;;;;;8.97;5.60;;;;;;;;;;4969837;28;20189;-76
2021/12/12 14:53:48;;;;;;;10.07;5.77;;;;;;;;;;4944109;28;20240;-76
2021/12/12 14:56:15;;;;;;;7.80;4.87;;;;;;;;;;4942940;28;20438;-76
2021/12/12 14:58:45;;;;;;;10.50;5.37;;;;;;;;;;4966394;28;20189;-76
2021/12/12 15:01:14;;;;;;;5.73;4.60;;;;;;;;;;4954252;28;20324;-76
2021/12/12 15:03:41;;;;;;;6.93;4.90;;;;;;;;;;4966633;28;20189;-76
2021/12/12 15:06:09;;;;;;;8.53;4.97;;;;;;;;;;4957383;28;20187;-76
2021/12/12 15:08:39;;;;;;;7.20;5.70;;;;;;;;;;4955605;28;20184;-76
2021/12/12 15:11:15;;;;;;;5.53;4.97;;;;;;;;;;4953050;28;20189;-76
2021/12/12 15:13:43;;;;;;;6.00;5.30;;;;;;;;;;4954055;28;20309;-76
2021/12/12 15:16:11;;;;;;;6.00;5.10;;;;;;;;;;4949295;28;20248;-76